Time;durP1;ratioP1;P1;durP2;ratioP2;P2;SDS_P1;SDS_P2;PMS_P1;PMS_P2;Temp;Humidity;BMP_temperature;BMP_pressure;BME280_temperature;BME280_humidity;BME280_pressure;Samples;Min_cycle;Max_cycle;Signal;HPM_P1;HPM_P2
2023/02/27 00:00:27;;;;;;;;;;;0.60;99.90;;;;;;5037405;28;19965;-67
2023/02/27 00:02:54;;;;;;;;;;;0.60;99.90;;;;;;4970328;28;20004;-67
2023/02/27 00:05:22;;;;;;;;;;;0.60;99.90;;;;;;4970190;28;19930;-67
2023/02/27 00:07:49;;;;;;;;;;;0.60;99.90;;;;;;4968397;28;19950;-68
2023/02/27 00:10:15;;;;;;;;;;;0.50;99.90;;;;;;4961066;28;19933;-67
2023/02/27 00:12:42;;;;;;;;;;;0.50;99.90;;;;;;4960452;28;19926;-67
2023/02/27 00:15:12;;;;;;;;;;;0.50;99.90;;;;;;4967012;28;19932;-67
2023/02/27 00:17:39;;;;;;;;;;;0.50;99.90;;;;;;4970639;28;19927;-67
2023/02/27 00:20:09;;;;;;;;;;;0.40;99.90;;;;;;4970889;28;19926;-67
2023/02/27 00:22:36;;;;;;;;;;;0.40;99.90;;;;;;4971372;28;19972;-67
2023/02/27 00:25:03;;;;;;;;;;;0.40;99.90;;;;;;4970992;28;19932;-67
2023/02/27 00:27:31;;;;;;;;;;;0.30;99.90;;;;;;4970158;28;19926;-66
2023/02/27 00:29:58;;;;;;;;;;;0.40;99.90;;;;;;4969803;28;19927;-67
2023/02/27 00:32:26;;;;;;;;;;;0.40;99.90;;;;;;4970646;28;19972;-67
2023/02/27 00:34:52;;;;;;;;;;;0.40;99.90;;;;;;4970348;28;19926;-67
2023/02/27 00:37:19;;;;;;;;;;;0.30;99.90;;;;;;4971363;28;20326;-67
2023/02/27 00:39:46;;;;;;;;;;;0.30;99.90;;;;;;4970731;28;20368;-68
2023/02/27 00:42:12;;;;;;;;;;;0.30;99.90;;;;;;4970555;28;19926;-67
2023/02/27 00:44:39;;;;;;;;;;;0.30;99.90;;;;;;4969175;28;19926;-67
2023/02/27 00:47:06;;;;;;;;;;;0.30;99.90;;;;;;4969687;28;19926;-67
2023/02/27 00:49:34;;;;;;;;;;;0.30;99.90;;;;;;4970615;28;19926;-67
2023/02/27 00:52:01;;;;;;;;;;;0.30;99.90;;;;;;4969623;28;20216;-67
2023/02/27 00:54:27;;;;;;;;;;;0.40;99.90;;;;;;4969932;28;19969;-67
2023/02/27 00:56:54;;;;;;;;;;;0.40;99.90;;;;;;4970410;28;20025;-67
2023/02/27 00:59:21;;;;;;;;;;;0.40;99.90;;;;;;4970107;28;20048;-68
2023/02/27 01:01:47;;;;;;;;;;;0.30;99.90;;;;;;4970764;28;19926;-68
2023/02/27 01:04:14;;;;;;;;;;;0.30;99.90;;;;;;4969587;28;20350;-67
2023/02/27 01:06:42;;;;;;;;;;;0.30;99.90;;;;;;4970460;28;19952;-68
2023/02/27 01:09:09;;;;;;;;;;;0.20;99.90;;;;;;4966337;28;20013;-67
2023/02/27 01:11:36;;;;;;;;;;;0.30;99.90;;;;;;4968669;28;19926;-67
2023/02/27 01:14:02;;;;;;;;;;;0.40;99.90;;;;;;4967404;28;19926;-67
2023/02/27 01:16:29;;;;;;;;;;;0.40;99.90;;;;;;4965391;28;19970;-68
2023/02/27 01:18:56;;;;;;;;;;;0.30;99.90;;;;;;4968361;28;19949;-67
2023/02/27 01:21:23;;;;;;;;;;;0.20;99.90;;;;;;4970364;28;20023;-67
2023/02/27 01:23:51;;;;;;;;;;;0.20;99.90;;;;;;4971700;28;19932;-66
2023/02/27 01:26:18;;;;;;;;;;;0.20;99.90;;;;;;4972916;28;19926;-67
2023/02/27 01:28:44;;;;;;;;;;;0.20;99.90;;;;;;4971955;28;19930;-67
2023/02/27 01:31:11;;;;;;;;;;;0.10;99.90;;;;;;4973345;28;20300;-67
2023/02/27 01:33:40;;;;;;;;;;;0.10;99.90;;;;;;4973144;28;20270;-67
2023/02/27 01:36:07;;;;;;;;;;;0.00;99.90;;;;;;4972232;28;19926;-67
2023/02/27 01:38:34;;;;;;;;;;;0.00;99.90;;;;;;4972218;28;19948;-67
2023/02/27 01:41:05;;;;;;;;;;;0.00;99.90;;;;;;4973525;28;20381;-67
2023/02/27 01:43:31;;;;;;;;;;;0.00;99.90;;;;;;4969359;28;19926;-68
2023/02/27 01:45:59;;;;;;;;;;;-0.10;99.90;;;;;;4973335;28;20029;-67
2023/02/27 01:48:27;;;;;;;;;;;-0.20;99.90;;;;;;4972558;28;19933;-68
2023/02/27 01:50:56;;;;;;;;;;;-0.20;99.90;;;;;;4973171;28;19933;-67
2023/02/27 01:53:24;;;;;;;;;;;-0.30;99.90;;;;;;4961776;28;20390;-67
2023/02/27 01:55:53;;;;;;;;;;;-0.40;99.90;;;;;;4953724;29;19926;-67
2023/02/27 01:58:21;;;;;;;;;;;-0.40;99.90;;;;;;4954119;28;20294;-68
2023/02/27 02:00:48;;;;;;;;;;;-0.40;99.90;;;;;;4971179;28;19930;-67
2023/02/27 02:03:21;;;;;;;;;;;-0.40;99.90;;;;;;4971271;28;19932;-68
2023/02/27 02:05:49;;;;;;;;;;;-0.40;99.90;;;;;;4972716;28;19988;-68
2023/02/27 02:08:18;;;;;;;;;;;-0.40;99.90;;;;;;4972984;28;20274;-67
2023/02/27 02:10:46;;;;;;;;;;;-0.40;99.90;;;;;;4972306;28;20316;-68
2023/02/27 02:13:13;;;;;;;;;;;-0.50;99.90;;;;;;4970286;28;19979;-67
2023/02/27 02:15:43;;;;;;;;;;;-0.60;99.90;;;;;;4972049;28;19926;-68
2023/02/27 02:18:16;;;;;;;;;;;-0.60;99.90;;;;;;4965043;28;19932;-67
2023/02/27 02:20:58;;;;;;;;;;;-0.60;99.90;;;;;;4972106;28;19930;-67
2023/02/27 02:23:44;;;;;;;;;;;-0.60;99.90;;;;;;4966921;28;20415;-68
2023/02/27 02:26:33;;;;;;;;;;;-0.50;99.90;;;;;;4970694;28;20306;-68
2023/02/27 02:29:14;;;;;;;;;;;-0.50;99.90;;;;;;4968284;28;19926;-67
2023/02/27 02:32:00;;;;;;;;;;;-0.60;99.90;;;;;;4947007;28;19931;-67
2023/02/27 02:34:48;;;;;;;;;;;-0.60;99.90;;;;;;4965691;28;19958;-68
2023/02/27 02:37:36;;;;;;;;;;;-0.60;99.90;;;;;;4959253;28;19971;-67
2023/02/27 02:40:11;;;;;;;;;;;-0.60;99.90;;;;;;4971248;28;19937;-67
2023/02/27 02:42:42;;;;;;;;;;;-0.60;99.90;;;;;;4971453;28;19930;-67
2023/02/27 02:45:11;;;;;;;;;;;-0.60;99.90;;;;;;4968764;28;19969;-67
2023/02/27 02:47:43;;;;;;;;;;;-0.70;99.90;;;;;;4960870;28;19933;-68
2023/02/27 02:50:13;;;;;;;;;;;-0.60;99.90;;;;;;4968545;28;19926;-68
2023/02/27 02:52:44;;;;;;;;;;;-0.70;99.90;;;;;;4967323;28;20026;-68
2023/02/27 02:55:14;;;;;;;;;;;-0.70;99.90;;;;;;4970909;28;19933;-68
2023/02/27 02:57:42;;;;;;;;;;;-0.70;99.90;;;;;;4959964;28;20389;-68
2023/02/27 03:00:11;;;;;;;;;;;-0.70;99.90;;;;;;4968819;28;19926;-67
2023/02/27 03:02:40;;;;;;;;;;;-0.70;99.90;;;;;;4939582;28;20476;-67
2023/02/27 03:05:08;;;;;;;;;;;-0.70;99.90;;;;;;4971503;28;19965;-67
2023/02/27 03:07:38;;;;;;;;;;;-0.80;99.90;;;;;;4969602;28;19932;-67
2023/02/27 03:10:08;;;;;;;;;;;-0.70;99.90;;;;;;4970214;28;19926;-67
2023/02/27 03:12:38;;;;;;;;;;;-0.70;99.90;;;;;;4970051;28;19933;-67
2023/02/27 03:15:08;;;;;;;;;;;-0.70;99.90;;;;;;4971350;28;19926;-66
2023/02/27 03:17:39;;;;;;;;;;;-0.70;99.90;;;;;;4971149;28;19926;-68
2023/02/27 03:20:07;;;;;;;;;;;-0.70;99.90;;;;;;4970955;28;19926;-67
2023/02/27 03:22:35;;;;;;;;;;;-0.70;99.90;;;;;;4971294;28;20369;-67
2023/02/27 03:25:04;;;;;;;;;;;-0.70;99.90;;;;;;4968528;28;19932;-68
2023/02/27 03:27:32;;;;;;;;;;;-0.70;99.90;;;;;;4969232;28;19933;-67
2023/02/27 03:30:05;;;;;;;;;;;-0.80;99.90;;;;;;4971636;28;19952;-67
2023/02/27 03:32:35;;;;;;;;;;;-0.80;99.90;;;;;;4971216;28;20311;-67
2023/02/27 03:35:02;;;;;;;;;;;-0.80;99.90;;;;;;4971484;28;19932;-67
2023/02/27 03:37:31;;;;;;;;;;;-0.90;99.90;;;;;;4969369;28;19932;-67
2023/02/27 03:40:01;;;;;;;;;;;-0.80;99.90;;;;;;4970362;28;19930;-68
2023/02/27 03:42:32;;;;;;;;;;;-0.90;99.90;;;;;;4984672;28;19925;-67
2023/02/27 03:45:02;;;;;;;;;;;-0.90;99.90;;;;;;4971274;28;19930;-66
2023/02/27 03:47:31;;;;;;;;;;;-0.90;99.90;;;;;;4970176;28;19936;-67
2023/02/27 03:49:57;;;;;;;;;;;-1.00;99.90;;;;;;4971537;28;19926;-67
2023/02/27 03:52:25;;;;;;;;;;;-1.00;99.90;;;;;;4971114;28;19926;-66
2023/02/27 03:54:55;;;;;;;;;;;-1.00;99.90;;;;;;4970366;28;19926;-67
2023/02/27 03:57:22;;;;;;;;;;;-1.00;99.90;;;;;;4952065;29;20394;-67
2023/02/27 03:59:49;;;;;;;;;;;-1.00;99.90;;;;;;4961381;28;20029;-67
2023/02/27 04:02:16;;;;;;;;;;;-1.00;99.90;;;;;;4970614;28;20402;-67
2023/02/27 04:04:44;;;;;;;;;;;-1.00;99.90;;;;;;4971252;28;20436;-67
2023/02/27 04:10:14;;;;;;;;;;;-1.00;99.90;;;;;;4967580;28;20010;-68
2023/02/27 04:12:49;;;;;;;;;;;-1.00;99.90;;;;;;4971135;28;19926;-67
2023/02/27 04:15:19;;;;;;;;;;;-1.00;99.90;;;;;;4967195;28;19965;-67
2023/02/27 04:17:50;;;;;;;;;;;-1.10;99.90;;;;;;4968715;28;19926;-67
2023/02/27 04:20:24;;;;;;;;;;;-1.10;99.90;;;;;;4958387;28;19972;-67
2023/02/27 04:22:53;;;;;;;;;;;-1.00;99.90;;;;;;4969238;28;19996;-68
2023/02/27 04:25:24;;;;;;;;;;;-1.10;99.90;;;;;;4965853;28;20369;-68
2023/02/27 04:27:57;;;;;;;;;;;-1.10;99.90;;;;;;4968819;28;20016;-67
2023/02/27 04:30:26;;;;;;;;;;;-1.20;99.90;;;;;;4966426;28;19933;-67
2023/02/27 04:32:55;;;;;;;;;;;-1.10;99.90;;;;;;4969172;28;20301;-67
2023/02/27 04:35:25;;;;;;;;;;;-1.20;99.90;;;;;;4968241;28;20173;-68
2023/02/27 04:37:55;;;;;;;;;;;-1.20;99.90;;;;;;4970060;28;19926;-68
2023/02/27 04:40:24;;;;;;;;;;;-1.20;99.90;;;;;;4968810;28;19930;-67
2023/02/27 04:42:54;;;;;;;;;;;-1.10;99.90;;;;;;4970808;28;19926;-67
2023/02/27 04:45:22;;;;;;;;;;;-1.10;99.90;;;;;;4968077;28;19926;-67
2023/02/27 04:47:51;;;;;;;;;;;-1.20;99.90;;;;;;4969849;28;19926;-67
2023/02/27 04:50:21;;;;;;;;;;;-1.10;99.90;;;;;;4970019;28;20376;-67
2023/02/27 04:52:51;;;;;;;;;;;-1.20;99.90;;;;;;4969976;28;20240;-67
2023/02/27 04:55:21;;;;;;;;;;;-1.30;99.90;;;;;;4971955;28;19933;-67
2023/02/27 04:57:49;;;;;;;;;;;-1.20;99.90;;;;;;4973028;28;20028;-67
2023/02/27 05:00:16;;;;;;;;;;;-1.30;99.90;;;;;;4970771;28;19930;-67
2023/02/27 05:02:45;;;;;;;;;;;-1.30;99.90;;;;;;4968859;28;20017;-66
2023/02/27 05:05:14;;;;;;;;;;;-1.30;99.90;;;;;;4959513;28;20005;-66
2023/02/27 05:07:44;;;;;;;;;;;-1.30;99.90;;;;;;4969970;28;19926;-67
2023/02/27 05:10:14;;;;;;;;;;;-1.30;99.90;;;;;;4964426;28;19926;-66
2023/02/27 05:12:45;;;;;;;;;;;-1.40;99.90;;;;;;4954807;29;20005;-66
2023/02/27 05:15:13;;;;;;;;;;;-1.30;99.90;;;;;;4954830;29;19926;-67
2023/02/27 05:17:44;;;;;;;;;;;-1.30;99.90;;;;;;4955094;29;19927;-66
2023/02/27 05:20:13;;;;;;;;;;;-1.40;99.90;;;;;;4960792;28;19932;-67
2023/02/27 05:22:45;;;;;;;;;;;-1.40;99.90;;;;;;4972765;28;19929;-67
2023/02/27 05:25:15;;;;;;;;;;;-1.40;99.90;;;;;;4971859;28;19926;-67
2023/02/27 05:27:45;;;;;;;;;;;-1.40;99.90;;;;;;4973210;28;19926;-67
2023/02/27 05:30:19;;;;;;;;;;;-1.40;99.90;;;;;;4973207;28;20326;-67
2023/02/27 05:32:48;;;;;;;;;;;-1.40;99.90;;;;;;4973027;28;19972;-66
2023/02/27 05:35:18;;;;;;;;;;;-1.40;99.90;;;;;;4972107;28;19927;-67
2023/02/27 05:37:46;;;;;;;;;;;-1.40;99.90;;;;;;4972314;28;20037;-66
2023/02/27 05:40:16;;;;;;;;;;;-1.50;99.90;;;;;;4966152;28;20373;-67
2023/02/27 05:42:45;;;;;;;;;;;-1.50;99.90;;;;;;4963406;28;19926;-65
2023/02/27 05:45:13;;;;;;;;;;;-1.60;99.90;;;;;;4964120;28;19932;-67
2023/02/27 05:47:44;;;;;;;;;;;-1.70;99.90;;;;;;4968372;28;20020;-67
2023/02/27 05:50:13;;;;;;;;;;;-1.70;99.90;;;;;;4964265;28;19926;-67
2023/02/27 05:52:40;;;;;;;;;;;-1.70;99.90;;;;;;4963374;28;19934;-67
2023/02/27 05:55:10;;;;;;;;;;;-1.70;99.90;;;;;;4969317;28;19926;-67
2023/02/27 05:57:41;;;;;;;;;;;-1.70;99.90;;;;;;4973098;28;19932;-66
2023/02/27 06:00:11;;;;;;;;;;;-1.80;99.90;;;;;;4971815;28;20381;-67
2023/02/27 06:02:38;;;;;;;;;;;-1.80;99.90;;;;;;4953247;28;19933;-67
2023/02/27 06:05:05;;;;;;;;;;;-1.80;99.90;;;;;;4955179;28;19988;-67
2023/02/27 06:07:33;;;;;;;;;;;-1.90;99.90;;;;;;4960283;28;19927;-67
2023/02/27 06:10:00;;;;;;;;;;;-1.90;99.90;;;;;;4969561;28;19925;-66
2023/02/27 06:12:26;;;;;;;;;;;-1.80;99.90;;;;;;4965217;28;19938;-67
2023/02/27 06:14:54;;;;;;;;;;;-1.90;99.90;;;;;;4970302;28;19926;-66
2023/02/27 06:17:21;;;;;;;;;;;-1.90;99.90;;;;;;4971285;28;20035;-66
2023/02/27 06:19:48;;;;;;;;;;;-1.80;99.90;;;;;;4962502;28;20021;-66
2023/02/27 06:22:14;;;;;;;;;;;-1.80;99.90;;;;;;4966581;28;19932;-67
2023/02/27 06:24:41;;;;;;;;;;;-1.80;99.90;;;;;;4965931;28;20371;-67
2023/02/27 06:27:08;;;;;;;;;;;-1.70;99.90;;;;;;4961635;28;20389;-66
2023/02/27 06:29:34;;;;;;;;;;;-1.70;99.90;;;;;;4971340;28;19926;-67
2023/02/27 06:32:02;;;;;;;;;;;-1.60;99.90;;;;;;4967686;28;19926;-67
2023/02/27 06:34:29;;;;;;;;;;;-1.70;99.90;;;;;;4971577;28;20008;-67
2023/02/27 06:36:56;;;;;;;;;;;-1.80;99.90;;;;;;4971516;28;19933;-68
2023/02/27 06:39:22;;;;;;;;;;;-1.70;99.90;;;;;;4971736;28;19926;-67
2023/02/27 06:41:49;;;;;;;;;;;-1.80;99.90;;;;;;4971095;28;20440;-67
2023/02/27 06:44:16;;;;;;;;;;;-1.80;99.90;;;;;;4971647;28;19969;-67
2023/02/27 06:46:42;;;;;;;;;;;-1.80;99.90;;;;;;4971361;28;20017;-67
2023/02/27 06:49:10;;;;;;;;;;;-1.80;99.90;;;;;;4968823;28;20475;-67
2023/02/27 06:51:38;;;;;;;;;;;-1.70;99.90;;;;;;4971871;28;20025;-66
2023/02/27 06:54:04;;;;;;;;;;;-1.70;99.90;;;;;;4970295;28;20369;-68
2023/02/27 06:56:31;;;;;;;;;;;-1.70;99.90;;;;;;4964771;28;20005;-66
2023/02/27 06:58:58;;;;;;;;;;;-1.70;99.90;;;;;;4967486;28;19926;-69
2023/02/27 07:01:25;;;;;;;;;;;-1.80;99.90;;;;;;4965233;28;20005;-66
2023/02/27 07:03:52;;;;;;;;;;;-1.70;99.90;;;;;;4962488;28;19927;-66
2023/02/27 07:06:20;;;;;;;;;;;-1.70;99.90;;;;;;4964325;28;20021;-67
2023/02/27 07:08:47;;;;;;;;;;;-1.60;99.90;;;;;;4976694;28;19931;-67
2023/02/27 07:11:13;;;;;;;;;;;-1.50;99.90;;;;;;4965982;28;19926;-67
2023/02/27 07:13:41;;;;;;;;;;;-1.50;99.90;;;;;;4983874;28;19980;-66
2023/02/27 07:16:07;;;;;;;;;;;-1.40;99.90;;;;;;4969543;28;19937;-67
2023/02/27 07:18:35;;;;;;;;;;;-1.40;99.90;;;;;;4966199;28;19933;-67
2023/02/27 07:21:02;;;;;;;;;;;-1.30;99.90;;;;;;4958142;28;20009;-67
2023/02/27 07:23:31;;;;;;;;;;;-1.20;99.90;;;;;;4967160;28;19930;-67
2023/02/27 07:26:00;;;;;;;;;;;-1.20;99.90;;;;;;4969705;28;19926;-67
2023/02/27 07:28:27;;;;;;;;;;;-1.10;99.90;;;;;;4966538;28;19960;-67
2023/02/27 07:30:54;;;;;;;;;;;-1.10;99.90;;;;;;4970822;28;19972;-66
2023/02/27 07:33:21;;;;;;;;;;;-1.00;99.90;;;;;;4969892;28;19930;-66
2023/02/27 07:35:47;;;;;;;;;;;-0.90;99.90;;;;;;4962778;28;19930;-67
2023/02/27 07:38:14;;;;;;;;;;;-0.80;99.90;;;;;;4967287;28;20300;-67
2023/02/27 07:40:42;;;;;;;;;;;-0.80;99.90;;;;;;4962621;28;19934;-68
2023/02/27 07:43:09;;;;;;;;;;;-0.70;99.90;;;;;;4959340;28;19937;-68
2023/02/27 07:45:35;;;;;;;;;;;-0.70;99.90;;;;;;4954478;28;19962;-67
2023/02/27 07:48:02;;;;;;;;;;;-0.60;99.90;;;;;;4962913;28;19972;-67
2023/02/27 07:50:29;;;;;;;;;;;-0.50;99.90;;;;;;4959742;28;19981;-68
2023/02/27 07:52:55;;;;;;;;;;;-0.40;99.90;;;;;;4955071;28;19958;-67
2023/02/27 07:55:22;;;;;;;;;;;-0.40;99.90;;;;;;4969479;28;19926;-67
2023/02/27 07:57:50;;;;;;;;;;;-0.30;99.90;;;;;;4965680;28;19930;-68
2023/02/27 08:00:17;;;;;;;;;;;-0.20;99.90;;;;;;4961041;28;20468;-67
2023/02/27 08:02:44;;;;;;;;;;;-0.10;99.90;;;;;;4970218;28;20446;-68
2023/02/27 08:05:11;;;;;;;;;;;-0.10;99.90;;;;;;4969871;28;19933;-67
2023/02/27 08:07:37;;;;;;;;;;;0.00;99.90;;;;;;4970432;28;20021;-68
2023/02/27 08:10:04;;;;;;;;;;;0.10;99.90;;;;;;4970695;28;19970;-67
2023/02/27 08:12:31;;;;;;;;;;;0.20;99.90;;;;;;4983462;28;19927;-67
2023/02/27 08:14:59;;;;;;;;;;;0.30;99.90;;;;;;4969066;28;20413;-68
2023/02/27 08:17:26;;;;;;;;;;;0.90;99.90;;;;;;4968245;28;19926;-72
2023/02/27 08:19:52;;;;;;;;;;;1.70;99.90;;;;;;4967852;28;19952;-68
2023/02/27 08:22:19;;;;;;;;;;;2.00;99.90;;;;;;4969000;28;20408;-67
2023/02/27 08:24:46;;;;;;;;;;;2.30;99.90;;;;;;4960173;28;19933;-68
2023/02/27 08:27:13;;;;;;;;;;;2.40;99.90;;;;;;4966983;28;19934;-67
2023/02/27 08:29:42;;;;;;;;;;;2.80;99.90;;;;;;4962399;28;19930;-68
2023/02/27 08:32:10;;;;;;;;;;;2.60;99.90;;;;;;4971194;28;20273;-68
2023/02/27 08:34:36;;;;;;;;;;;2.80;99.90;;;;;;4967925;28;19926;-67
2023/02/27 08:37:03;;;;;;;;;;;2.90;99.90;;;;;;4965218;28;19930;-67
2023/02/27 08:39:30;;;;;;;;;;;3.10;99.90;;;;;;4968073;28;20294;-66
2023/02/27 08:41:57;;;;;;;;;;;3.40;98.80;;;;;;4969020;28;19926;-67
2023/02/27 08:44:24;;;;;;;;;;;3.20;99.90;;;;;;4969907;28;19927;-67
2023/02/27 08:46:54;;;;;;;;;;;3.00;99.40;;;;;;4968354;28;19927;-67
2023/02/27 08:49:24;;;;;;;;;;;3.90;98.50;;;;;;4969099;28;20008;-68
2023/02/27 08:51:50;;;;;;;;;;;3.50;98.60;;;;;;4966051;28;20006;-68
2023/02/27 08:54:18;;;;;;;;;;;3.40;99.30;;;;;;4966608;28;20005;-68
2023/02/27 08:56:45;;;;;;;;;;;3.30;99.10;;;;;;4967965;28;19931;-68
2023/02/27 08:59:12;;;;;;;;;;;3.30;99.20;;;;;;4964149;28;19926;-68
2023/02/27 09:01:38;;;;;;;;;;;4.20;98.80;;;;;;4968359;28;20373;-68
2023/02/27 09:04:06;;;;;;;;;;;4.40;96.20;;;;;;4969616;28;19930;-67
2023/02/27 09:06:35;;;;;;;;;;;4.60;95.80;;;;;;4968137;28;20403;-67
2023/02/27 09:09:02;;;;;;;;;;;4.80;95.20;;;;;;4967329;28;20045;-67
2023/02/27 09:11:29;;;;;;;;;;;4.80;95.80;;;;;;4968117;28;20030;-67
2023/02/27 09:13:56;;;;;;;;;;;4.30;96.00;;;;;;4968202;28;20000;-68
2023/02/27 09:16:23;;;;;;;;;;;4.50;95.70;;;;;;4968683;28;19934;-67
2023/02/27 09:18:53;;;;;;;;;;;4.50;95.90;;;;;;4966548;28;19980;-67
2023/02/27 09:21:21;;;;;;;;;;;4.80;95.20;;;;;;4968305;28;19934;-67
2023/02/27 09:23:49;;;;;;;;;;;4.70;94.50;;;;;;4968712;28;19930;-67
2023/02/27 09:26:16;;;;;;;;;;;4.10;94.80;;;;;;4964994;28;19938;-68
2023/02/27 09:28:43;;;;;;;;;;;4.10;96.40;;;;;;4965969;28;19933;-68
2023/02/27 09:31:10;;;;;;;;;;;4.50;94.40;;;;;;4968455;28;20012;-68
2023/02/27 09:33:38;;;;;;;;;;;4.40;94.80;;;;;;4967564;28;19926;-68
2023/02/27 09:36:05;;;;;;;;;;;4.90;94.30;;;;;;4967775;28;20013;-68
2023/02/27 09:38:32;;;;;;;;;;;5.00;93.60;;;;;;4968630;28;20033;-68
2023/02/27 09:41:01;;;;;;;;;;;4.60;93.20;;;;;;4970530;28;19980;-66
2023/02/27 09:43:30;;;;;;;;;;;4.40;92.80;;;;;;4971534;28;19937;-67
2023/02/27 09:45:58;;;;;;;;;;;4.60;93.90;;;;;;4961416;28;20026;-67
2023/02/27 09:48:29;;;;;;;;;;;4.30;92.90;;;;;;4970834;28;19931;-68
2023/02/27 09:50:56;;;;;;;;;;;3.40;95.00;;;;;;4971806;28;19927;-66
2023/02/27 09:53:26;;;;;;;;;;;3.10;95.50;;;;;;4970702;28;20298;-68
2023/02/27 09:55:54;;;;;;;;;;;3.00;96.10;;;;;;4970814;28;19933;-68
2023/02/27 09:58:35;;;;;;;;;;;3.20;97.00;;;;;;4966277;28;20013;-68
2023/02/27 10:01:04;;;;;;;;;;;3.30;96.50;;;;;;4968342;28;19926;-69
2023/02/27 10:03:40;;;;;;;;;;;3.20;96.00;;;;;;4971195;28;19927;-69
2023/02/27 10:06:24;;;;;;;;;;;3.20;95.40;;;;;;4971300;28;19934;-67
2023/02/27 10:08:55;;;;;;;;;;;3.20;96.20;;;;;;4972404;28;20343;-69
2023/02/27 10:11:25;;;;;;;;;;;3.40;95.20;;;;;;4971039;28;20328;-68
2023/02/27 10:13:58;;;;;;;;;;;3.50;95.10;;;;;;4971994;28;19926;-67
2023/02/27 10:16:26;;;;;;;;;;;3.20;94.10;;;;;;4971647;28;19932;-67
2023/02/27 10:18:56;;;;;;;;;;;3.30;94.50;;;;;;4972688;28;20008;-68
2023/02/27 10:21:26;;;;;;;;;;;3.30;94.60;;;;;;4971963;28;19995;-68
2023/02/27 10:23:55;;;;;;;;;;;3.30;94.50;;;;;;4971814;28;20312;-66
2023/02/27 10:26:25;;;;;;;;;;;3.30;94.10;;;;;;4971055;28;20018;-68
2023/02/27 10:28:52;;;;;;;;;;;3.30;94.40;;;;;;4971407;28;20360;-67
2023/02/27 10:31:22;;;;;;;;;;;3.50;94.50;;;;;;4971672;28;20016;-68
2023/02/27 10:33:49;;;;;;;;;;;3.60;94.50;;;;;;4971323;28;20350;-68
2023/02/27 10:36:17;;;;;;;;;;;3.60;93.00;;;;;;4971073;28;19970;-68
2023/02/27 10:38:45;;;;;;;;;;;3.70;92.80;;;;;;4971536;28;19934;-69
2023/02/27 10:41:13;;;;;;;;;;;3.70;92.70;;;;;;4970600;28;20017;-68
2023/02/27 10:43:40;;;;;;;;;;;3.80;91.70;;;;;;4971593;28;19926;-69
2023/02/27 10:46:12;;;;;;;;;;;3.80;91.90;;;;;;4971545;28;19930;-71
2023/02/27 10:48:40;;;;;;;;;;;3.90;91.20;;;;;;4970729;28;20381;-68
2023/02/27 10:51:21;;;;;;;;;;;4.00;91.20;;;;;;4970789;28;20023;-70
2023/02/27 10:53:48;;;;;;;;;;;3.90;91.70;;;;;;4969193;28;20025;-68
2023/02/27 10:56:21;;;;;;;;;;;4.20;91.40;;;;;;4968895;28;19974;-68
2023/02/27 10:59:01;;;;;;;;;;;3.90;90.20;;;;;;4971560;28;19983;-68
2023/02/27 11:01:40;;;;;;;;;;;4.00;90.40;;;;;;4971127;28;19931;-68
2023/02/27 11:04:08;;;;;;;;;;;4.10;90.10;;;;;;4971297;28;20005;-68
2023/02/27 11:06:35;;;;;;;;;;;4.00;88.00;;;;;;4971383;28;19949;-69
2023/02/27 11:09:13;;;;;;;;;;;4.10;88.50;;;;;;4965475;28;19926;-68
2023/02/27 11:11:40;;;;;;;;;;;4.10;90.00;;;;;;4971389;28;20009;-68
2023/02/27 11:14:15;;;;;;;;;;;4.10;89.20;;;;;;4969702;28;20312;-69
2023/02/27 11:16:45;;;;;;;;;;;4.00;87.10;;;;;;4971067;28;20369;-67
2023/02/27 11:19:24;;;;;;;;;;;4.20;88.10;;;;;;4971322;28;20022;-69
2023/02/27 11:22:01;;;;;;;;;;;4.00;86.40;;;;;;4971141;28;19926;-67
2023/02/27 11:24:29;;;;;;;;;;;4.30;84.70;;;;;;4969616;28;19933;-68
2023/02/27 11:26:57;;;;;;;;;;;4.30;83.10;;;;;;4970787;28;20009;-68
2023/02/27 11:29:25;;;;;;;;;;;4.40;84.80;;;;;;4970921;28;19970;-68
2023/02/27 11:31:52;;;;;;;;;;;4.30;81.50;;;;;;4969980;28;19972;-68
2023/02/27 11:34:22;;;;;;;;;;;4.60;82.50;;;;;;4970391;28;19926;-68
2023/02/27 11:36:51;;;;;;;;;;;4.60;80.30;;;;;;4971753;28;19933;-67
2023/02/27 11:39:23;;;;;;;;;;;4.50;81.50;;;;;;4970365;28;20436;-67
2023/02/27 11:41:50;;;;;;;;;;;4.40;79.20;;;;;;4970416;28;20020;-68
2023/02/27 11:44:17;;;;;;;;;;;4.30;78.30;;;;;;4970596;28;20411;-69
2023/02/27 11:46:44;;;;;;;;;;;4.50;77.90;;;;;;4970819;28;20024;-67
2023/02/27 11:49:15;;;;;;;;;;;4.60;78.30;;;;;;4970638;28;19927;-67
2023/02/27 11:51:48;;;;;;;;;;;4.60;78.50;;;;;;4970244;28;20363;-67
2023/02/27 11:54:18;;;;;;;;;;;4.80;78.00;;;;;;4969631;28;20381;-68
2023/02/27 11:56:47;;;;;;;;;;;4.90;77.80;;;;;;4952246;29;19976;-67
2023/02/27 11:59:17;;;;;;;;;;;4.90;76.00;;;;;;4968595;28;19926;-67
2023/02/27 12:01:47;;;;;;;;;;;4.90;73.40;;;;;;4966786;28;20374;-68
2023/02/27 12:04:16;;;;;;;;;;;4.70;76.40;;;;;;4970093;28;19932;-68
2023/02/27 12:06:46;;;;;;;;;;;4.70;76.10;;;;;;4971061;28;19927;-68
2023/02/27 12:09:23;;;;;;;;;;;4.80;75.80;;;;;;4968344;28;19926;-67
2023/02/27 12:11:50;;;;;;;;;;;4.80;74.30;;;;;;4970577;28;20114;-68
2023/02/27 12:14:18;;;;;;;;;;;4.80;75.50;;;;;;4969671;28;20465;-68
2023/02/27 12:16:49;;;;;;;;;;;4.80;77.00;;;;;;4968418;28;20009;-68
2023/02/27 12:19:18;;;;;;;;;;;5.10;78.70;;;;;;4969146;28;19996;-68
2023/02/27 12:21:45;;;;;;;;;;;4.60;79.30;;;;;;4963079;28;19933;-67
2023/02/27 12:24:16;;;;;;;;;;;4.70;78.60;;;;;;4968628;28;20021;-68
2023/02/27 12:26:45;;;;;;;;;;;4.70;78.40;;;;;;4970070;28;19930;-67
2023/02/27 12:29:17;;;;;;;;;;;4.90;76.50;;;;;;4970269;28;20612;-68
2023/02/27 12:31:47;;;;;;;;;;;4.60;72.60;;;;;;4967871;28;19933;-69
2023/02/27 12:34:20;;;;;;;;;;;4.90;75.40;;;;;;4967182;28;19933;-68
2023/02/27 12:36:47;;;;;;;;;;;4.80;75.30;;;;;;4968571;28;19926;-68
2023/02/27 12:39:17;;;;;;;;;;;5.00;71.80;;;;;;4968223;28;20359;-68
2023/02/27 12:42:01;;;;;;;;;;;5.10;73.70;;;;;;4961437;28;19926;-67
2023/02/27 12:44:35;;;;;;;;;;;4.90;72.30;;;;;;4951465;28;19973;-67
2023/02/27 12:47:05;;;;;;;;;;;5.00;73.20;;;;;;4964839;28;20520;-67
2023/02/27 12:49:38;;;;;;;;;;;4.90;69.70;;;;;;4969387;28;20030;-66
2023/02/27 12:52:16;;;;;;;;;;;5.10;72.80;;;;;;4968343;28;21450;-67
2023/02/27 12:54:49;;;;;;;;;;;5.10;70.50;;;;;;4968158;28;20267;-67
2023/02/27 12:57:26;;;;;;;;;;;5.20;71.90;;;;;;4968178;28;20288;-67
2023/02/27 12:59:57;;;;;;;;;;;5.40;71.10;;;;;;4968781;28;20029;-68
2023/02/27 13:02:38;;;;;;;;;;;5.50;70.80;;;;;;4961288;28;19926;-68
2023/02/27 13:05:12;;;;;;;;;;;5.10;68.90;;;;;;4965096;28;19926;-67
2023/02/27 13:07:47;;;;;;;;;;;5.20;67.70;;;;;;4969391;28;19934;-68
2023/02/27 13:10:18;;;;;;;;;;;5.10;67.60;;;;;;4969704;28;19927;-68
2023/02/27 13:12:50;;;;;;;;;;;4.80;69.40;;;;;;4969308;28;20300;-68
2023/02/27 13:15:20;;;;;;;;;;;4.80;70.50;;;;;;4971218;28;19984;-67
2023/02/27 13:17:48;;;;;;;;;;;4.70;67.00;;;;;;4972053;28;19937;-68
2023/02/27 13:20:24;;;;;;;;;;;5.10;69.60;;;;;;4971268;28;19926;-68
2023/02/27 13:22:53;;;;;;;;;;;5.40;70.10;;;;;;4961507;28;19948;-67
2023/02/27 13:25:20;;;;;;;;;;;5.50;66.80;;;;;;4973702;28;20330;-67
2023/02/27 13:27:51;;;;;;;;;;;5.60;67.30;;;;;;4972007;28;19926;-68
2023/02/27 13:30:21;;;;;;;;;;;5.40;67.20;;;;;;4973088;28;19926;-68
2023/02/27 13:32:52;;;;;;;;;;;5.30;67.30;;;;;;4972032;28;19953;-67
2023/02/27 13:35:23;;;;;;;;;;;5.20;65.30;;;;;;4972778;28;20474;-67
2023/02/27 13:37:51;;;;;;;;;;;5.30;67.00;;;;;;4972665;28;20278;-67
2023/02/27 13:40:27;;;;;;;;;;;5.40;66.30;;;;;;4971512;28;19934;-66
2023/02/27 13:42:57;;;;;;;;;;;5.50;65.90;;;;;;4972504;28;19926;-67
2023/02/27 13:45:42;;;;;;;;;;;5.50;66.70;;;;;;4972288;28;20376;-67
2023/02/27 13:48:24;;;;;;;;;;;5.40;66.30;;;;;;4971039;28;20047;-67
2023/02/27 13:50:51;;;;;;;;;;;5.60;64.40;;;;;;4970307;28;20005;-67
2023/02/27 13:53:19;;;;;;;;;;;5.50;65.60;;;;;;4970850;28;19926;-66
2023/02/27 13:55:46;;;;;;;;;;;5.60;64.00;;;;;;4973056;28;19979;-66
2023/02/27 13:58:17;;;;;;;;;;;5.70;63.20;;;;;;4972388;28;20024;-67
2023/02/27 14:00:52;;;;;;;;;;;6.00;64.60;;;;;;4971319;28;19926;-67
2023/02/27 14:03:22;;;;;;;;;;;6.10;63.70;;;;;;4971841;28;20044;-69
2023/02/27 14:05:51;;;;;;;;;;;6.00;63.90;;;;;;4971621;28;20389;-66
2023/02/27 14:08:19;;;;;;;;;;;5.60;63.00;;;;;;4970944;28;19934;-67
2023/02/27 14:10:58;;;;;;;;;;;5.30;64.00;;;;;;4971054;28;19930;-67
2023/02/27 14:13:43;;;;;;;;;;;5.20;64.00;;;;;;4971518;28;19966;-67
2023/02/27 14:16:12;;;;;;;;;;;5.30;65.50;;;;;;4972676;28;19969;-68
2023/02/27 14:18:53;;;;;;;;;;;5.60;64.40;;;;;;4971998;28;19930;-68
2023/02/27 14:21:39;;;;;;;;;;;5.70;65.00;;;;;;4962943;28;20033;-68
2023/02/27 14:24:15;;;;;;;;;;;6.00;65.60;;;;;;4962547;28;19985;-68
2023/02/27 14:26:45;;;;;;;;;;;5.70;67.30;;;;;;4970098;28;20257;-67
2023/02/27 14:29:16;;;;;;;;;;;5.50;63.40;;;;;;4971023;28;19930;-66
2023/02/27 14:31:45;;;;;;;;;;;5.20;65.20;;;;;;4970408;28;19926;-67
2023/02/27 14:34:15;;;;;;;;;;;5.20;65.40;;;;;;4970156;28;20029;-66
2023/02/27 14:36:44;;;;;;;;;;;5.40;67.30;;;;;;4971082;28;19926;-66
2023/02/27 14:39:19;;;;;;;;;;;5.80;64.50;;;;;;4971909;28;20013;-66